Latest Weather Observations for Weipa

IDQ60801

Issued at 5:35 pm EST Thursday 18 September 2014 (issued every 30 minutes, with the page automatically refreshed every 10 minutes)

About weather observations | Map of weather stations | Latest weather observations for QLD | Other Formats
Station Details ID: 027045 Name: WEIPA AERO Lat: -12.68 Lon: 141.92 Height: 17.96 m
Data from the previous 72 hours. | See also: Recent months at Weipa
Date/Time
EST
Temp
°C
App
Temp
°C
Dew
Point
Rel
Hum
%
Delta-T
°C
Wind Press
QNH
hPa
Press
MSL
hPa
Rain
since 9 am
mm
Dir
 
Spd
km/h
Gust
km/h
Spd
kts
Gust
kts
18/05:30pm 32.9 25.2 0.2 12 16.0 ESE 30 39 16 21 1011.7 - 0.0
18/05:00pm 34.1 27.6 0.1 11 16.7 ESE 24 35 13 19 1011.4 - 0.0
18/04:30pm 34.5 27.5 -0.7 10 17.1 ESE 26 35 14 19 1011.2 - 0.0
18/04:00pm 35.2 28.5 -1.3 10 17.7 SE 24 46 13 25 1011.2 - 0.0
18/03:30pm 35.3 28.4 2.3 12 16.9 ESE 28 41 15 22 1011.2 - 0.0
18/03:15pm 35.3 28.2 1.1 11 17.2 ESE 28 48 15 26 1011.3 - 0.0
18/03:00pm 35.1 29.4 2.7 13 16.7 SE 22 37 12 20 1011.3 1011.2 0.0
18/02:30pm 35.2 29.2 3.5 14 16.6 ESE 24 43 13 23 1011.6 - 0.0
18/02:00pm 34.9 28.0 4.4 15 16.2 ESE 30 43 16 23 1012.2 - 0.0
18/01:30pm 34.3 28.7 5.5 16 15.5 SE 24 41 13 22 1012.7 - 0.0
18/01:12pm 34.9 28.6 5.7 16 15.8 ESE 28 48 15 26 1013.0 - 0.0
18/01:00pm 33.8 28.8 6.4 18 14.9 SSE 22 37 12 20 1013.2 - 0.0
18/12:30pm 32.8 28.6 8.3 22 13.7 ESE 20 33 11 18 1013.8 - 0.0
18/12:00pm 31.8 28.3 10.3 26 12.3 ESE 19 30 10 16 1014.5 1014.4 0.0
18/11:30am 31.1 27.5 10.4 28 11.8 E 20 33 11 18 1015.2 - 0.0
18/11:00am 29.8 26.8 11.9 33 10.4 ESE 19 32 10 17 1015.9 - 0.0
18/10:30am 28.9 26.6 13.1 37 9.3 ESE 17 28 9 15 1016.3 - 0.0
18/10:00am 27.0 26.2 15.0 47 7.3 E 13 24 7 13 1016.5 - 0.0
18/09:30am 26.0 25.3 16.3 55 6.0 E 15 26 8 14 1016.6 - 0.0
18/09:00am 24.8 24.3 16.8 61 4.9 ESE 15 22 8 12 1016.5 1016.4 0.0
18/08:30am 23.8 24.0 16.7 64 4.4 ESE 11 19 6 10 1016.5 - 0.0
18/08:00am 21.9 22.1 15.7 68 3.7 ESE 9 13 5 7 1016.3 - 0.0
18/07:30am 19.6 19.8 14.1 70 3.2 ESE 6 7 3 4 1015.9 - 0.0
18/07:00am 17.5 17.9 13.7 78 2.2 ESE 4 6 2 3 1015.6 - 0.0
18/06:30am 16.2 17.3 13.6 84 1.5 CALM 0 2 0 1 1015.4 - 0.0
18/06:00am 16.4 16.4 13.5 83 1.6 ESE 6 6 3 3 1015.1 1015.0 0.0
18/05:30am 16.5 16.9 13.8 84 1.5 ESE 4 4 2 2 1014.8 - 0.0
18/05:00am 16.6 17.4 13.8 83 1.6 E 2 4 1 2 1014.7 - 0.0
18/04:30am 16.9 17.8 13.9 82 1.7 E 2 4 1 2 1014.5 - 0.0
18/04:00am 17.8 18.7 13.9 78 2.2 E 2 4 1 2 1014.4 - 0.0
18/03:30am 18.3 18.6 13.5 73 2.7 SE 4 6 2 3 1014.5 - 0.0
18/03:00am 18.2 18.8 14.3 78 2.2 ESE 4 6 2 3 1014.4 1014.3 0.0
18/02:30am 18.7 19.9 14.8 78 2.3 SE 2 6 1 3 1014.7 - 0.0
18/02:00am 19.3 20.4 14.7 74 2.7 ESE 2 4 1 2 1014.9 - 0.0
18/01:30am 19.9 20.8 15.1 74 2.8 ESE 4 7 2 4 1015.2 - 0.0
18/01:00am 20.0 21.7 16.2 79 2.3 ESE 2 4 1 2 1015.5 - 0.0
18/12:30am 20.7 22.5 16.5 77 2.5 SE 2 4 1 2 1015.5 - 0.0
18/12:00am 20.9 22.5 16.8 77 2.5 ESE 4 6 2 3 1015.7 1015.6 0.0
 
Date/Time
EST
Temp
°C
App
Temp
°C
Dew
Point
Rel
Hum
%
Delta-T
°C
Wind Press
QNH
hPa
Press
MSL
hPa
Rain
since 9 am
mm
Dir
 
Spd
km/h
Gust
km/h
Spd
kts
Gust
kts
17/11:30pm 21.8 23.3 17.7 77 2.5 ESE 6 6 3 3 1015.6 - 0.0
17/11:00pm 22.0 24.5 19.8 87 1.4 ESE 6 6 3 3 1015.6 - 0.0
17/10:30pm 22.3 25.6 20.0 87 1.5 ENE 2 4 1 2 1015.5 - 0.0
17/10:00pm 22.4 25.9 20.3 88 1.4 ENE 2 4 1 2 1015.4 - 0.0
17/09:30pm 23.0 26.9 20.3 85 1.7 CALM 0 2 0 1 1015.1 - 0.0
17/09:00pm 23.6 27.5 20.4 82 2.1 CALM 0 0 0 0 1014.6 1014.5 0.0
17/08:30pm 23.8 27.3 20.3 81 2.3 N 2 4 1 2 1014.2 - 0.0
17/08:00pm 24.9 28.5 20.6 77 2.8 N 2 6 1 3 1013.8 - 0.0
17/07:30pm 25.2 28.2 20.8 76 2.9 WSW 6 9 3 5 1013.6 - 0.0
17/07:00pm 25.5 28.3 20.8 75 3.1 WNW 7 11 4 6 1012.7 - 0.0
17/06:30pm 26.0 27.5 20.5 71 3.6 WNW 13 20 7 11 1012.0 - 0.0
17/06:00pm 27.2 27.8 19.4 62 5.1 WNW 15 24 8 13 1011.4 1011.3 0.0
17/05:30pm 29.3 29.9 17.6 49 7.4 W 11 22 6 12 1011.0 - 0.0
17/05:00pm 30.6 28.6 14.9 38 9.6 W 19 26 10 14 1010.6 - 0.0
17/04:30pm 32.4 32.5 15.5 36 10.5 W 9 17 5 9 1010.4 - 0.0
17/04:00pm 34.3 30.3 6.7 18 15.1 E 17 26 9 14 1010.3 - 0.0
17/03:30pm 34.6 31.4 6.8 18 15.3 SE 13 24 7 13 1010.3 - 0.0
17/03:00pm 33.7 30.2 7.0 19 14.7 E 15 28 8 15 1010.7 1010.6 0.0
17/02:30pm 34.5 30.6 6.9 18 15.2 SE 17 26 9 14 1011.1 - 0.0
17/02:00pm 33.8 30.4 7.8 20 14.5 SE 15 30 8 16 1011.4 - 0.0
17/01:30pm 33.4 29.3 7.9 20 14.2 SE 19 32 10 17 1011.9 - 0.0
17/01:00pm 33.5 30.3 8.3 21 14.1 ESE 15 28 8 15 1012.3 - 0.0
17/12:30pm 32.7 28.9 9.8 24 13.1 SE 20 30 11 16 1012.9 - 0.0
17/12:00pm 32.8 29.3 10.8 26 12.8 ESE 20 30 11 16 1013.6 1013.5 0.0
17/11:30am 31.6 27.9 11.4 29 11.8 E 22 30 12 16 1014.2 - 0.0
17/11:00am 30.2 27.0 13.0 34 10.2 E 22 32 12 17 1014.8 - 0.0
17/10:30am 29.3 27.2 13.6 38 9.4 ESE 17 28 9 15 1015.2 - 0.0
17/10:00am 28.4 25.8 13.8 40 8.7 ESE 20 30 11 16 1015.4 - 0.0
17/09:30am 26.8 25.7 16.3 52 6.5 ESE 17 28 9 15 1015.6 - 0.0
17/09:00am 26.1 25.1 17.5 59 5.4 ESE 19 28 10 15 1015.5 1015.4 0.0
17/08:30am 24.2 23.7 17.9 68 3.9 ESE 17 22 9 12 1015.4 - 0.0
17/08:00am 22.3 23.4 17.9 76 2.7 ESE 9 19 5 10 1015.1 - 0.0
17/07:30am 20.6 23.0 18.0 85 1.6 E 2 4 1 2 1014.8 - 0.0
17/07:00am 18.2 20.1 16.7 91 0.9 E 2 2 1 1 1014.5 - 0.0
17/06:30am 17.8 19.7 16.6 93 0.7 ENE 2 2 1 1 1014.2 - 0.0
17/06:00am 18.4 20.6 16.6 89 1.1 CALM 0 0 0 0 1013.8 1013.7 0.0
17/05:30am 18.7 21.0 16.8 89 1.1 CALM 0 0 0 0 1013.6 - 0.0
17/05:00am 19.3 20.8 17.6 90 1.0 SSE 6 7 3 4 1013.2 - 0.0
17/04:30am 19.8 22.1 17.8 88 1.2 E 2 4 1 2 1012.9 - 0.0
17/04:00am 19.8 21.1 17.2 85 1.6 SE 6 6 3 3 1012.8 - 0.0
17/03:30am 19.2 21.3 17.2 88 1.2 SE 2 6 1 3 1012.8 - 0.0
17/03:00am 19.6 21.6 16.9 84 1.6 SE 2 6 1 3 1012.9 1012.8 0.0
17/02:30am 19.9 21.9 17.0 83 1.8 SE 2 4 1 2 1013.1 - 0.0
17/02:00am 20.4 22.4 17.0 81 2.1 ESE 2 4 1 2 1013.5 - 0.0
17/01:30am 20.9 23.0 17.1 79 2.3 E 2 2 1 1 1013.8 - 0.0
17/01:00am 21.3 23.3 16.9 76 2.7 ESE 2 2 1 1 1013.9 - 0.0
17/12:30am 21.8 23.9 17.3 75 2.8 E 2 2 1 1 1014.2 - 0.0
17/12:00am 22.7 24.0 17.1 70 3.4 ESE 6 7 3 4 1014.2 1014.1 0.0
 
Date/Time
EST
Temp
°C
App
Temp
°C
Dew
Point
Rel
Hum
%
Delta-T
°C
Wind Press
QNH
hPa
Press
MSL
hPa
Rain
since 9 am
mm
Dir
 
Spd
km/h
Gust
km/h
Spd
kts
Gust
kts
16/11:30pm 23.3 24.3 16.8 67 4.0 E 7 13 4 7 1014.1 - 0.0
16/11:00pm 23.7 24.5 16.4 63 4.5 E 7 11 4 6 1014.1 - 0.0
16/10:30pm 24.4 24.3 16.0 59 5.1 E 11 19 6 10 1014.0 - 0.0
16/10:00pm 24.8 24.6 15.8 57 5.5 E 11 15 6 8 1013.9 - 0.0
16/09:30pm 25.1 25.4 16.1 57 5.5 E 9 15 5 8 1013.6 - 0.0
16/09:00pm 24.4 26.6 19.1 72 3.4 E 6 9 3 5 1013.2 1013.1 0.0
16/08:30pm 24.4 26.4 18.8 71 3.6 NE 6 6 3 3 1012.7 - 0.0
16/08:00pm 25.0 27.4 18.8 68 3.9 NE 4 6 2 3 1012.3 - 0.0
16/07:30pm 25.9 27.8 18.5 63 4.7 N 6 7 3 4 1011.6 - 0.0
16/07:00pm 26.6 28.1 18.1 59 5.4 NNW 7 11 4 6 1011.1 - 0.0
16/06:30pm 27.3 29.7 17.9 56 6.0 SW 2 6 1 3 1010.6 - 0.0
16/06:00pm 28.0 28.8 17.3 52 6.7 WSW 9 19 5 10 1009.9 1009.8 0.0
16/05:30pm 29.2 29.3 16.6 46 7.9 W 11 20 6 11 1009.5 - 0.0
16/05:00pm 31.1 30.9 14.8 37 10.0 WSW 9 17 5 9 1009.3 - 0.0
16/04:30pm 31.7 31.3 15.1 36 10.2 W 11 20 6 11 1009.1 - 0.0
16/04:00pm 32.5 32.3 14.7 34 10.9 WSW 9 20 5 11 1009.0 - 0.0
16/03:30pm 34.0 31.8 9.5 22 14.0 S 11 20 6 11 1009.0 - 0.0
16/03:00pm 33.9 31.6 9.1 21 14.1 E 11 17 6 9 1009.5 1009.4 0.0
16/02:30pm 33.7 32.5 9.6 22 13.8 S 6 24 3 13 1009.9 - 0.0
16/02:00pm 33.3 31.1 9.3 23 13.6 SSE 11 24 6 13 1010.3 - 0.0
16/01:30pm 33.1 30.0 9.0 22 13.6 SE 15 24 8 13 1010.9 - 0.0
16/01:00pm 32.5 29.2 9.6 24 13.0 SE 17 26 9 14 1011.4 - 0.0
16/12:30pm 32.4 30.5 11.8 28 12.1 SE 13 20 7 11 1012.1 - 0.0
16/12:00pm 31.7 29.6 12.5 31 11.4 ESE 15 24 8 13 1012.8 1012.7 0.0
16/11:30am 30.7 28.9 13.4 34 10.4 ESE 15 28 8 15 1013.3 - 0.0
16/11:00am 30.0 28.9 14.4 38 9.5 ESE 13 24 7 13 1013.9 - 0.0
16/10:30am 28.7 27.2 15.3 44 8.2 E 17 24 9 13 1014.4 - 0.0
16/10:00am 27.9 25.8 15.3 46 7.7 E 20 30 11 16 1014.7 - 0.0
16/09:30am 26.6 25.0 16.6 54 6.2 ESE 20 30 11 16 1014.9 - 0.0
16/09:00am 25.9 24.6 17.3 59 5.4 ESE 20 32 11 17 1015.0 1014.9 0.0
16/08:30am 24.1 23.9 17.6 67 4.1 ESE 15 24 8 13 1015.0 - 0.0
16/08:00am 22.5 22.7 17.6 74 3.0 ESE 13 19 7 10 1014.7 - 0.0
16/07:30am 20.4 21.7 17.2 82 2.0 ESE 6 7 3 4 1014.5 - 0.0
16/07:00am 19.3 21.0 17.1 87 1.3 E 4 6 2 3 1014.2 - 0.0
16/06:30am 18.4 19.5 16.6 89 1.1 ESE 6 6 3 3 1013.9 - 0.0
16/06:00am 18.4 19.8 16.3 87 1.3 SE 4 6 2 3 1013.5 1013.4 0.0
16/05:30am 18.8 20.2 16.5 86 1.4 SE 4 4 2 2 1013.2 - 0.0
16/05:00am 18.8 20.2 16.5 86 1.4 SE 4 6 2 3 1012.9 - 0.0
16/04:30am 18.6 20.8 16.4 87 1.3 CALM 0 0 0 0 1012.8 - 0.0
16/04:00am 19.1 21.3 16.5 85 1.6 CALM 0 2 0 1 1012.8 - 0.0
16/03:30am 20.0 21.3 16.2 79 2.3 ESE 4 4 2 2 1012.7 - 0.0
16/03:00am 20.2 21.5 16.1 77 2.5 SE 4 6 2 3 1012.9 1012.8 0.0
16/02:30am 20.5 21.4 16.2 76 2.6 SE 6 6 3 3 1013.0 - 0.0
16/02:00am 21.4 22.5 16.6 74 2.9 ESE 6 7 3 4 1013.3 - 0.0
16/01:30am 22.5 23.4 16.6 69 3.6 ENE 7 13 4 7 1013.4 - 0.0
16/01:00am 21.7 22.0 15.9 69 3.5 E 9 15 5 8 1013.6 - 0.0
16/12:30am 21.9 23.3 16.5 71 3.3 E 4 6 2 3 1013.8 - 0.0
16/12:00am 22.6 24.1 16.6 69 3.7 E 4 7 2 4 1013.9 1013.8 0.0
 
Date/Time
EST
Temp
°C
App
Temp
°C
Dew
Point
Rel
Hum
%
Delta-T
°C
Wind Press
QNH
hPa
Press
MSL
hPa
Rain
since 9 am
mm
Dir
 
Spd
km/h
Gust
km/h
Spd
kts
Gust
kts
15/11:30pm 23.1 24.3 16.8 67 3.9 ENE 6 9 3 5 1013.8 - 0.0
15/11:00pm 23.4 25.5 18.9 76 2.9 ENE 6 9 3 5 1013.7 - 0.0
15/10:30pm 23.4 26.3 20.7 85 1.8 NNE 6 7 3 4 1013.5 - 0.0
15/10:00pm 23.4 26.4 20.8 85 1.7 NE 6 7 3 4 1013.4 - 0.0
15/09:30pm 23.7 26.6 20.7 83 2.0 NE 6 7 3 4 1013.1 - 0.0
15/09:00pm 24.2 27.5 20.8 81 2.2 NNE 4 6 2 3 1012.7 1012.6 0.0
15/08:30pm 25.0 28.0 20.9 78 2.7 N 6 13 3 7 1012.3 - 0.0
15/08:00pm 25.0 28.4 20.9 78 2.7 W 4 7 2 4 1011.8 - 0.0
15/07:30pm 25.6 27.6 20.7 74 3.2 NNW 11 15 6 8 1011.5 - 0.0
15/07:00pm 25.5 27.8 20.6 74 3.2 WNW 9 15 5 8 1010.9 - 0.0
15/06:30pm 26.1 27.8 20.2 70 3.8 WNW 11 17 6 9 1010.5 - 0.0
15/06:00pm 27.0 27.6 18.7 60 5.3 W 13 22 7 12 1010.0 1009.9 0.0

Other Formats:

Comma delimited format used in spreadsheet applications
http://www.bom.gov.au/fwo/IDQ60801/IDQ60801.94170.axf

JavaScript Object Notation format (JSON) in row-major order
http://www.bom.gov.au/fwo/IDQ60801/IDQ60801.94170.json